createdAt,value
2022-07-31T00:03:57.932Z,2.80
2022-07-31T00:09:03.092Z,2.95
2022-07-31T00:14:10.570Z,2.80
2022-07-31T00:19:17.616Z,3.00
2022-07-31T00:24:22.986Z,2.90
2022-07-31T00:29:30.836Z,3.00
2022-07-31T00:34:36.910Z,3.00
2022-07-31T00:39:41.738Z,2.65
2022-07-31T00:44:50.102Z,2.25
2022-07-31T00:49:56.035Z,2.70
2022-07-31T00:55:00.921Z,2.15
2022-07-31T01:00:09.910Z,2.60
2022-07-31T01:05:14.871Z,2.42
2022-07-31T01:10:26.396Z,2.10
2022-07-31T01:20:42.993Z,1.80
2022-07-31T01:26:06.574Z,2.10
2022-07-31T01:31:27.264Z,2.10
2022-07-31T01:36:37.813Z,2.05
2022-07-31T01:41:46.051Z,2.00
2022-07-31T01:46:55.672Z,2.25
2022-07-31T01:52:04.375Z,2.20
2022-07-31T01:57:11.938Z,2.30
2022-07-31T02:02:28.788Z,2.40
2022-07-31T02:07:34.814Z,2.10
2022-07-31T02:12:46.428Z,2.10
2022-07-31T02:17:57.505Z,2.00
2022-07-31T02:23:15.976Z,2.30
2022-07-31T02:28:23.238Z,2.30
2022-07-31T02:33:31.580Z,2.35
2022-07-31T02:38:39.040Z,3.00
2022-07-31T02:43:45.501Z,2.95
2022-07-31T02:49:03.032Z,2.70
2022-07-31T02:54:09.611Z,2.33
2022-07-31T02:59:15.785Z,2.33
2022-07-31T03:04:38.913Z,2.28
2022-07-31T03:09:43.800Z,2.30
2022-07-31T03:15:10.126Z,2.50
2022-07-31T03:20:19.024Z,2.85
2022-07-31T03:25:24.148Z,2.58
2022-07-31T03:30:29.398Z,2.72
2022-07-31T03:35:39.910Z,2.42
2022-07-31T03:40:50.057Z,2.42
2022-07-31T03:45:56.334Z,2.60
2022-07-31T03:51:04.678Z,2.30
2022-07-31T03:56:10.477Z,2.33
2022-07-31T04:01:15.371Z,2.20
2022-07-31T04:06:23.141Z,3.00
2022-07-31T04:11:28.173Z,2.58
2022-07-31T04:16:33.493Z,2.53
2022-07-31T04:21:41.070Z,2.47
2022-07-31T04:26:46.441Z,2.30
2022-07-31T04:31:51.454Z,2.30
2022-07-31T04:37:06.113Z,2.30
2022-07-31T04:42:12.593Z,2.20
2022-07-31T04:47:18.609Z,2.20
2022-07-31T04:52:31.560Z,2.20
2022-07-31T04:57:42.328Z,2.42
2022-07-31T05:02:47.498Z,2.00
2022-07-31T05:07:57.330Z,2.33
2022-07-31T05:13:09.125Z,2.10
2022-07-31T05:18:14.285Z,2.10
2022-07-31T05:23:41.948Z,2.10
2022-07-31T05:29:04.355Z,2.05
2022-07-31T05:34:09.320Z,2.08
2022-07-31T05:39:17.967Z,1.88
2022-07-31T05:44:41.276Z,2.00
2022-07-31T05:49:46.624Z,2.10
2022-07-31T05:54:54.149Z,1.80
2022-07-31T06:00:28.513Z,1.90
2022-07-31T06:05:39.070Z,2.00
2022-07-31T06:10:47.169Z,2.00
2022-07-31T06:15:52.304Z,2.00
2022-07-31T06:20:57.376Z,1.80
2022-07-31T06:26:06.072Z,1.90
2022-07-31T06:31:19.498Z,2.00
2022-07-31T06:36:24.455Z,1.67
2022-07-31T06:41:47.895Z,1.65
2022-07-31T06:47:13.833Z,1.98
2022-07-31T06:52:30.241Z,1.70
2022-07-31T06:57:38.091Z,1.90
2022-07-31T07:02:43.436Z,1.60
2022-07-31T07:07:48.689Z,1.60
2022-07-31T07:12:56.529Z,1.90
2022-07-31T07:18:01.548Z,1.90
2022-07-31T07:23:13.058Z,1.58
2022-07-31T07:28:34.162Z,1.73
2022-07-31T07:33:42.739Z,1.70
2022-07-31T07:38:58.992Z,1.73
2022-07-31T07:44:06.808Z,1.73
2022-07-31T07:49:12.414Z,1.63
2022-07-31T07:54:22.688Z,1.52
2022-07-31T08:00:02.253Z,1.80
2022-07-31T08:05:22.835Z,1.60
2022-07-31T08:10:28.792Z,1.90
2022-07-31T08:15:44.150Z,1.65
2022-07-31T08:21:04.804Z,1.52
2022-07-31T08:26:11.576Z,1.63
2022-07-31T08:31:22.380Z,1.60
2022-07-31T08:36:43.307Z,1.50
2022-07-31T08:41:48.286Z,1.50
2022-07-31T08:46:59.926Z,1.70
2022-07-31T08:52:06.084Z,1.60
2022-07-31T08:57:29.612Z,1.73
2022-07-31T09:02:41.159Z,1.50
2022-07-31T09:08:21.854Z,1.60
2022-07-31T09:13:31.007Z,1.40
2022-07-31T09:18:40.959Z,1.10
2022-07-31T09:23:50.625Z,1.20
2022-07-31T09:28:55.525Z,1.10
2022-07-31T09:34:03.746Z,1.02
2022-07-31T09:39:27.184Z,1.10
2022-07-31T09:44:52.984Z,1.00
2022-07-31T09:50:03.174Z,0.98
2022-07-31T09:55:15.933Z,1.08
2022-07-31T10:00:21.962Z,0.90
2022-07-31T10:05:31.778Z,0.90
2022-07-31T10:10:46.135Z,1.00
2022-07-31T10:16:17.940Z,0.90
2022-07-31T10:21:39.174Z,0.93
2022-07-31T10:27:00.416Z,0.80
2022-07-31T10:32:07.679Z,0.73
2022-07-31T10:37:23.188Z,0.88
2022-07-31T10:42:51.816Z,0.80
2022-07-31T10:47:58.305Z,0.90
2022-07-31T10:53:50.232Z,0.77
2022-07-31T10:59:02.083Z,0.90
2022-07-31T11:04:35.110Z,0.80
2022-07-31T11:09:57.246Z,0.70
2022-07-31T11:15:27.138Z,0.80
2022-07-31T11:21:13.657Z,0.77
2022-07-31T11:26:33.063Z,0.70
2022-07-31T11:31:53.768Z,0.60
2022-07-31T11:37:01.934Z,0.85
2022-07-31T11:42:14.353Z,0.82
2022-07-31T11:48:09.418Z,0.68
2022-07-31T11:52:47.863Z,0.80
2022-07-31T11:57:56.151Z,0.80
2022-07-31T12:03:01.535Z,0.70
2022-07-31T12:08:09.651Z,0.70
2022-07-31T12:13:20.380Z,0.70
2022-07-31T12:18:27.433Z,0.70
2022-07-31T12:23:47.270Z,0.70
2022-07-31T12:29:02.963Z,0.50
2022-07-31T12:34:08.204Z,0.60
2022-07-31T12:39:14.794Z,0.80
2022-07-31T12:44:23.345Z,0.70
2022-07-31T12:49:28.536Z,0.70
2022-07-31T12:54:39.491Z,0.82
2022-07-31T12:59:47.810Z,0.70
2022-07-31T13:04:53.846Z,0.70
2022-07-31T13:10:20.449Z,0.77
2022-07-31T13:15:30.185Z,0.55
2022-07-31T13:20:36.245Z,0.55
2022-07-31T13:25:42.196Z,0.70
2022-07-31T13:30:53.298Z,0.70
2022-07-31T13:36:00.340Z,0.50
2022-07-31T13:41:18.535Z,0.60
2022-07-31T13:46:26.474Z,0.35
2022-07-31T13:51:31.339Z,0.50
2022-07-31T13:56:42.643Z,0.40
2022-07-31T14:02:13.538Z,0.60
2022-07-31T14:07:45.297Z,0.63
2022-07-31T14:12:53.639Z,0.50
2022-07-31T14:18:04.319Z,0.60
2022-07-31T14:23:12.808Z,0.50
2022-07-31T14:28:17.930Z,0.50
2022-07-31T14:33:25.406Z,0.55
2022-07-31T14:38:30.862Z,0.50
2022-07-31T14:43:36.464Z,0.50
2022-07-31T14:48:44.084Z,0.60
2022-07-31T14:53:49.010Z,0.45
2022-07-31T14:58:58.437Z,0.57
2022-07-31T15:04:06.995Z,0.60
2022-07-31T15:09:11.960Z,0.68
2022-07-31T15:14:20.337Z,0.82
2022-07-31T15:19:29.012Z,0.50
2022-07-31T15:24:34.332Z,0.60
2022-07-31T15:30:00.210Z,0.80
2022-07-31T15:35:07.793Z,0.50
2022-07-31T15:40:15.276Z,0.63
2022-07-31T15:45:22.456Z,0.70
2022-07-31T15:50:34.192Z,0.70
2022-07-31T15:55:40.052Z,0.80
2022-07-31T16:00:45.085Z,0.73
2022-07-31T16:05:55.941Z,0.70
2022-07-31T16:11:01.250Z,0.60
2022-07-31T16:16:07.366Z,0.77
2022-07-31T16:21:15.054Z,0.77
2022-07-31T16:26:20.281Z,0.63
2022-07-31T16:31:29.855Z,0.80
2022-07-31T16:36:39.041Z,0.70
2022-07-31T16:41:54.288Z,0.60
2022-07-31T16:46:59.775Z,0.70
2022-07-31T16:52:09.970Z,0.73
2022-07-31T16:57:15.427Z,0.70
2022-07-31T17:02:20.404Z,0.80
2022-07-31T17:07:28.565Z,0.60
2022-07-31T17:12:33.457Z,0.73
2022-07-31T17:17:38.450Z,0.60
2022-07-31T17:22:46.052Z,0.60
2022-07-31T17:27:59.080Z,0.60
2022-07-31T17:33:04.019Z,0.60
2022-07-31T17:38:11.609Z,0.60
2022-07-31T17:43:17.359Z,0.60
2022-07-31T17:48:33.110Z,0.60
2022-07-31T17:53:54.628Z,0.68
2022-07-31T17:59:05.760Z,0.70
2022-07-31T18:04:11.073Z,0.87
2022-07-31T18:09:23.911Z,0.70
2022-07-31T18:14:29.295Z,0.70
2022-07-31T18:19:34.309Z,0.70
2022-07-31T18:24:42.534Z,0.70
2022-07-31T18:29:55.953Z,0.60
2022-07-31T18:35:01.602Z,0.57
2022-07-31T18:40:13.151Z,0.60
2022-07-31T18:45:25.029Z,0.60
2022-07-31T18:51:01.370Z,0.80
2022-07-31T18:55:57.815Z,0.60
2022-07-31T19:01:02.902Z,0.70
2022-07-31T19:06:08.577Z,0.70
2022-07-31T19:11:16.185Z,0.70
2022-07-31T19:16:21.092Z,0.70
2022-07-31T19:21:42.065Z,0.75
2022-07-31T19:27:06.772Z,0.70
2022-07-31T19:32:11.737Z,0.60
2022-07-31T19:37:16.676Z,0.70
2022-07-31T19:42:24.634Z,0.60
2022-07-31T19:47:33.744Z,0.80
2022-07-31T19:52:39.367Z,0.70
2022-07-31T19:57:53.795Z,0.60
2022-07-31T20:03:01.929Z,0.68
2022-07-31T20:08:08.733Z,0.60
2022-07-31T20:13:16.591Z,0.60
2022-07-31T20:18:54.562Z,0.70
2022-07-31T20:24:00.693Z,0.70
2022-07-31T20:29:08.821Z,0.70
2022-07-31T20:34:13.842Z,0.70
2022-07-31T20:39:18.974Z,0.77
2022-07-31T20:44:26.851Z,0.63
2022-07-31T20:49:35.810Z,0.50
2022-07-31T20:54:41.964Z,0.70
2022-07-31T20:59:49.817Z,0.65
2022-07-31T21:04:54.999Z,0.60
2022-07-31T21:10:00.612Z,0.65
2022-07-31T21:15:30.286Z,0.80
2022-07-31T21:20:51.289Z,0.75
2022-07-31T21:26:00.199Z,0.77
2022-07-31T21:31:09.600Z,0.73
2022-07-31T21:36:17.509Z,0.70
2022-07-31T21:41:24.005Z,0.60
2022-07-31T21:46:32.919Z,0.80
2022-07-31T21:51:38.624Z,0.70
2022-07-31T21:56:45.869Z,0.80
2022-07-31T22:01:57.504Z,0.82
2022-07-31T22:07:25.870Z,0.70
2022-07-31T22:12:30.873Z,0.80
2022-07-31T22:17:38.373Z,0.80
2022-07-31T22:22:45.405Z,0.90
2022-07-31T22:27:56.373Z,0.70
2022-07-31T22:33:13.196Z,0.88
2022-07-31T22:38:18.209Z,0.80
2022-07-31T22:44:11.090Z,0.82
2022-07-31T22:48:51.184Z,0.80
2022-07-31T22:53:56.283Z,0.80
2022-07-31T22:59:01.419Z,0.80
2022-07-31T23:04:09.189Z,0.80
2022-07-31T23:09:14.096Z,0.80
2022-07-31T23:14:19.036Z,0.80
2022-07-31T23:19:27.270Z,0.73
2022-07-31T23:24:32.211Z,0.70
2022-07-31T23:29:41.699Z,0.90
2022-07-31T23:34:49.298Z,0.70
2022-07-31T23:39:54.645Z,0.80
2022-07-31T23:44:59.699Z,0.70
2022-07-31T23:50:08.329Z,0.80
2022-07-31T23:55:14.498Z,0.90
